Time;durP1;ratioP1;P1;durP2;ratioP2;P2;SDS_P1;SDS_P2;PMS_P1;PMS_P2;Temp;Humidity;BMP_temperature;BMP_pressure;BME280_temperature;BME280_humidity;BME280_pressure;Samples;Min_cycle;Max_cycle;Signal;HPM_P1;HPM_P2
2021/01/17 00:01:13;;;;;;;;;;;-1.00;99.90;;;;;;4852068;29;20235;-76
2021/01/17 00:03:44;;;;;;;;;;;-1.00;99.90;;;;;;4846450;29;19935;-77
2021/01/17 00:06:16;;;;;;;;;;;-1.00;99.90;;;;;;4840328;29;19923;-77
2021/01/17 00:08:43;;;;;;;;;;;-1.00;99.90;;;;;;4869495;29;19990;-77
2021/01/17 00:11:14;;;;;;;;;;;-1.10;99.90;;;;;;4866544;29;19931;-76
2021/01/17 00:13:43;;;;;;;;;;;-0.90;99.90;;;;;;4886812;29;19928;-80
2021/01/17 00:16:13;;;;;;;;;;;-0.80;99.90;;;;;;4859646;29;19935;-79
2021/01/17 00:18:40;;;;;;;;;;;-0.80;99.90;;;;;;4855485;29;19934;-80
2021/01/17 00:21:08;;;;;;;;;;;-0.80;99.90;;;;;;4858974;29;19935;-77
2021/01/17 00:23:37;;;;;;;;;;;-0.80;99.90;;;;;;4863599;29;19943;-77
2021/01/17 00:26:04;;;;;;;;;;;-0.80;99.90;;;;;;4841968;29;19924;-77
2021/01/17 00:28:40;;;;;;;;;;;-0.90;99.90;;;;;;4869061;29;19924;-77
2021/01/17 00:31:08;;;;;;;;;;;-0.90;99.90;;;;;;4872289;29;19935;-77
2021/01/17 00:33:35;;;;;;;;;;;-0.90;99.90;;;;;;4865709;29;19935;-78
2021/01/17 00:36:05;;;;;;;;;;;-0.90;99.90;;;;;;4859021;29;19924;-77
2021/01/17 00:38:32;;;;;;;;;;;-0.90;99.90;;;;;;4838947;29;19923;-78
2021/01/17 00:41:01;;;;;;;;;;;-0.90;99.90;;;;;;4860111;29;19932;-79
2021/01/17 00:43:33;;;;;;;;;;;-0.90;99.90;;;;;;4866124;29;19924;-78
2021/01/17 00:46:03;;;;;;;;;;;-1.00;99.90;;;;;;4859131;29;20362;-77
2021/01/17 00:48:32;;;;;;;;;;;-1.00;99.90;;;;;;4869560;29;19924;-78
2021/01/17 00:50:59;;;;;;;;;;;-1.00;99.90;;;;;;4847187;29;19939;-79
2021/01/17 00:53:32;;;;;;;;;;;-1.00;99.90;;;;;;4848728;29;19924;-78
2021/01/17 00:56:01;;;;;;;;;;;-1.00;99.90;;;;;;4833269;29;19928;-78
2021/01/17 00:58:28;;;;;;;;;;;-1.00;99.90;;;;;;4847074;29;19938;-79
2021/01/17 01:01:04;;;;;;;;;;;-1.10;99.90;;;;;;4849562;29;19924;-78
2021/01/17 01:03:45;;;;;;;;;;;-1.00;99.90;;;;;;4833852;29;20389;-78
2021/01/17 01:06:16;;;;;;;;;;;-1.00;99.90;;;;;;4848588;29;20266;-77
2021/01/17 01:08:44;;;;;;;;;;;-0.90;99.90;;;;;;4862159;29;19931;-76
2021/01/17 01:11:20;;;;;;;;;;;-1.00;99.90;;;;;;4862098;29;19924;-77
2021/01/17 01:13:47;;;;;;;;;;;-1.00;99.90;;;;;;4832715;29;19944;-78
2021/01/17 01:16:14;;;;;;;;;;;-1.00;99.90;;;;;;4836607;29;19924;-78
2021/01/17 01:18:45;;;;;;;;;;;-1.00;99.90;;;;;;4872350;29;19924;-78
2021/01/17 01:21:15;;;;;;;;;;;-1.00;99.90;;;;;;4871324;29;19924;-77
2021/01/17 01:23:43;;;;;;;;;;;-1.00;99.90;;;;;;4864152;29;19924;-78
2021/01/17 01:26:13;;;;;;;;;;;-1.00;99.90;;;;;;4838684;29;19924;-76
2021/01/17 01:28:40;;;;;;;;;;;-1.00;99.90;;;;;;4843596;29;20381;-78
2021/01/17 01:31:16;;;;;;;;;;;-0.90;99.90;;;;;;4847769;29;19932;-76
2021/01/17 01:33:43;;;;;;;;;;;-0.90;99.90;;;;;;4854234;29;19940;-76
2021/01/17 01:36:17;;;;;;;;;;;-0.90;99.90;;;;;;4841606;29;19928;-78
2021/01/17 01:38:52;;;;;;;;;;;-0.90;99.90;;;;;;4845609;29;19923;-76
2021/01/17 01:41:20;;;;;;;;;;;-0.90;99.90;;;;;;4845242;29;19924;-82
2021/01/17 01:43:52;;;;;;;;;;;-1.00;99.90;;;;;;4874944;29;19935;-81
2021/01/17 01:46:20;;;;;;;;;;;-1.00;99.90;;;;;;4879120;29;19928;-82
2021/01/17 01:48:50;;;;;;;;;;;-1.00;99.90;;;;;;4880539;29;19935;-82
2021/01/17 01:51:21;;;;;;;;;;;-1.10;99.90;;;;;;4877900;29;19928;-81
2021/01/17 01:53:50;;;;;;;;;;;-1.10;99.90;;;;;;4877861;29;19934;-82
2021/01/17 01:56:17;;;;;;;;;;;-1.20;99.90;;;;;;4879017;29;19930;-82
2021/01/17 01:58:47;;;;;;;;;;;-1.20;99.90;;;;;;4875597;29;19924;-81
2021/01/17 02:01:16;;;;;;;;;;;-1.30;99.90;;;;;;4849601;29;19935;-82
2021/01/17 02:03:45;;;;;;;;;;;-1.30;99.90;;;;;;4844220;29;19924;-82
2021/01/17 02:06:13;;;;;;;;;;;-1.30;99.90;;;;;;4838316;29;19914;-82
2021/01/17 02:09:09;;;;;;;;;;;-1.30;99.90;;;;;;4883000;29;19924;-80
2021/01/17 02:11:51;;;;;;;;;;;-1.30;99.90;;;;;;4881698;29;19944;-81
2021/01/17 02:14:27;;;;;;;;;;;-1.30;99.90;;;;;;4864562;29;19924;-81
2021/01/17 02:16:56;;;;;;;;;;;-1.40;99.90;;;;;;4859733;29;19908;-82
2021/01/17 02:19:28;;;;;;;;;;;-1.50;99.90;;;;;;4868055;29;19924;-82
2021/01/17 02:21:57;;;;;;;;;;;-1.50;99.90;;;;;;4882148;29;19923;-82
2021/01/17 02:24:25;;;;;;;;;;;-1.10;99.90;;;;;;4890077;29;19924;-82
2021/01/17 02:26:53;;;;;;;;;;;-1.00;99.90;;;;;;4869304;29;19923;-81
2021/01/17 02:29:20;;;;;;;;;;;-1.00;99.90;;;;;;4864289;29;19924;-81
2021/01/17 02:31:48;;;;;;;;;;;-1.00;99.90;;;;;;4879905;29;19930;-81
2021/01/17 02:34:22;;;;;;;;;;;-1.10;99.90;;;;;;4875054;29;19938;-81
2021/01/17 02:36:52;;;;;;;;;;;-1.10;99.90;;;;;;4852097;29;19938;-82
2021/01/17 02:39:25;;;;;;;;;;;-1.20;99.90;;;;;;4849280;29;19938;-82
2021/01/17 02:41:57;;;;;;;;;;;-1.20;99.90;;;;;;4880077;29;19930;-82
2021/01/17 02:44:26;;;;;;;;;;;-1.20;99.90;;;;;;4865819;29;19924;-81
2021/01/17 02:46:54;;;;;;;;;;;-1.20;99.90;;;;;;4889726;29;19928;-80
2021/01/17 02:49:24;;;;;;;;;;;-1.20;99.90;;;;;;4881435;29;19924;-82
2021/01/17 02:51:51;;;;;;;;;;;-1.20;99.90;;;;;;4868743;29;19923;-81
2021/01/17 02:54:21;;;;;;;;;;;-1.30;99.90;;;;;;4882348;29;19943;-81
2021/01/17 02:56:51;;;;;;;;;;;-1.30;99.90;;;;;;4880411;29;19923;-82
2021/01/17 02:59:22;;;;;;;;;;;-1.20;99.90;;;;;;4887634;29;19943;-80
2021/01/17 03:01:49;;;;;;;;;;;-1.30;99.90;;;;;;4889653;29;19946;-82
2021/01/17 03:04:32;;;;;;;;;;;-1.20;99.90;;;;;;4873636;29;20278;-82
2021/01/17 03:07:03;;;;;;;;;;;-1.20;99.90;;;;;;4867146;29;19934;-81
2021/01/17 03:09:34;;;;;;;;;;;-1.20;99.90;;;;;;4845709;29;19935;-79
2021/01/17 03:12:03;;;;;;;;;;;-1.20;99.90;;;;;;4847124;29;19924;-81
2021/01/17 03:14:32;;;;;;;;;;;-1.20;99.90;;;;;;4894443;29;19931;-81
2021/01/17 03:16:59;;;;;;;;;;;-1.30;99.90;;;;;;4864827;29;19925;-82
2021/01/17 03:19:27;;;;;;;;;;;-1.20;99.90;;;;;;4866424;29;19920;-81
2021/01/17 03:21:54;;;;;;;;;;;-1.20;99.90;;;;;;4894091;29;19930;-82
2021/01/17 03:24:23;;;;;;;;;;;-1.20;99.90;;;;;;4874117;29;20176;-82
2021/01/17 03:26:52;;;;;;;;;;;-1.30;99.90;;;;;;4875541;29;19924;-82
2021/01/17 03:29:19;;;;;;;;;;;-1.30;99.90;;;;;;4883076;29;19923;-82
2021/01/17 03:31:50;;;;;;;;;;;-1.30;99.90;;;;;;4866944;29;19946;-83
2021/01/17 03:34:18;;;;;;;;;;;-1.30;99.90;;;;;;4894131;29;19924;-82
2021/01/17 03:36:45;;;;;;;;;;;-1.30;99.90;;;;;;4873032;29;19930;-81
2021/01/17 03:39:12;;;;;;;;;;;-1.30;99.90;;;;;;4882455;29;19922;-81
2021/01/17 03:41:39;;;;;;;;;;;-1.30;99.90;;;;;;4875997;29;19924;-81
2021/01/17 03:44:06;;;;;;;;;;;-1.30;99.90;;;;;;4862291;29;19924;-81
2021/01/17 03:46:34;;;;;;;;;;;-1.30;99.90;;;;;;4871203;29;19923;-80
2021/01/17 03:49:05;;;;;;;;;;;-1.40;99.90;;;;;;4880687;29;19924;-80
2021/01/17 03:51:32;;;;;;;;;;;-1.40;99.90;;;;;;4880663;29;19931;-82
2021/01/17 03:53:59;;;;;;;;;;;-1.30;99.90;;;;;;4865013;29;19927;-82
2021/01/17 03:56:27;;;;;;;;;;;-1.40;99.90;;;;;;4877019;29;19908;-82
2021/01/17 03:58:54;;;;;;;;;;;-1.40;99.90;;;;;;4886561;29;19914;-82
2021/01/17 04:01:22;;;;;;;;;;;-1.40;99.90;;;;;;4873584;29;19920;-82
2021/01/17 04:03:50;;;;;;;;;;;-1.50;99.90;;;;;;4882791;29;19931;-82
2021/01/17 04:06:18;;;;;;;;;;;-1.50;99.90;;;;;;4867025;29;19934;-82
2021/01/17 04:08:45;;;;;;;;;;;-1.50;99.90;;;;;;4870057;29;19924;-82
2021/01/17 04:11:12;;;;;;;;;;;-1.50;99.90;;;;;;4872525;29;19924;-82
2021/01/17 04:13:39;;;;;;;;;;;-1.50;99.90;;;;;;4882535;29;19924;-82
2021/01/17 04:16:08;;;;;;;;;;;-1.50;99.90;;;;;;4867968;29;19930;-82
2021/01/17 04:18:36;;;;;;;;;;;-1.50;99.90;;;;;;4884233;29;19930;-82
2021/01/17 04:21:04;;;;;;;;;;;-1.60;99.90;;;;;;4864608;29;19924;-81
2021/01/17 04:23:32;;;;;;;;;;;-1.50;99.90;;;;;;4870378;29;19943;-81
2021/01/17 04:26:01;;;;;;;;;;;-1.50;99.90;;;;;;4871630;29;19928;-81
2021/01/17 04:28:31;;;;;;;;;;;-1.50;99.90;;;;;;4862195;29;19924;-82
2021/01/17 04:31:01;;;;;;;;;;;-1.50;99.90;;;;;;4879638;29;19924;-81
2021/01/17 04:33:30;;;;;;;;;;;-1.50;99.90;;;;;;4869422;29;19924;-81
2021/01/17 04:35:57;;;;;;;;;;;-1.50;99.90;;;;;;4863261;29;19924;-83
2021/01/17 04:38:30;;;;;;;;;;;-1.50;99.90;;;;;;4894686;29;19934;-82
2021/01/17 04:41:03;;;;;;;;;;;-1.50;99.90;;;;;;4895779;29;20149;-81
2021/01/17 04:43:31;;;;;;;;;;;-1.60;99.90;;;;;;4890724;29;19924;-81
2021/01/17 04:45:59;;;;;;;;;;;-1.60;99.90;;;;;;4877095;29;19925;-81
2021/01/17 04:48:26;;;;;;;;;;;-1.70;99.90;;;;;;4847161;29;19924;-82
2021/01/17 04:51:01;;;;;;;;;;;-1.70;99.90;;;;;;4865276;29;19938;-81
2021/01/17 04:53:29;;;;;;;;;;;-1.70;99.90;;;;;;4881302;29;19916;-82
2021/01/17 04:56:07;;;;;;;;;;;-1.80;99.90;;;;;;4885406;29;19933;-81
2021/01/17 04:58:36;;;;;;;;;;;-1.80;99.90;;;;;;4889308;29;19924;-81
2021/01/17 05:01:05;;;;;;;;;;;-1.70;99.90;;;;;;4849246;29;19924;-81
2021/01/17 05:03:43;;;;;;;;;;;-1.80;99.90;;;;;;4870251;29;19924;-81
2021/01/17 05:06:22;;;;;;;;;;;-1.80;99.90;;;;;;4867183;29;19934;-82
2021/01/17 05:08:57;;;;;;;;;;;-1.80;99.90;;;;;;4880294;29;19946;-82
2021/01/17 05:11:31;;;;;;;;;;;-1.80;99.90;;;;;;4872519;29;20330;-82
2021/01/17 05:14:11;;;;;;;;;;;-1.80;99.90;;;;;;4880101;29;19927;-82
2021/01/17 05:16:39;;;;;;;;;;;-1.80;99.90;;;;;;4847728;29;19924;-82
2021/01/17 05:19:10;;;;;;;;;;;-1.90;99.90;;;;;;4861624;29;19926;-82
2021/01/17 05:21:38;;;;;;;;;;;-1.90;99.90;;;;;;4880333;29;19924;-82
2021/01/17 05:24:09;;;;;;;;;;;-1.90;99.90;;;;;;4886334;29;19934;-81
2021/01/17 05:26:41;;;;;;;;;;;-1.90;99.90;;;;;;4847956;29;19930;-80
2021/01/17 05:29:10;;;;;;;;;;;-2.10;99.90;;;;;;4878758;29;19950;-82
2021/01/17 05:31:39;;;;;;;;;;;-2.20;99.90;;;;;;4874356;29;19924;-81
2021/01/17 05:34:06;;;;;;;;;;;-2.40;99.90;;;;;;4872749;29;19924;-81
2021/01/17 05:36:38;;;;;;;;;;;-2.60;99.90;;;;;;4877189;29;19935;-82
2021/01/17 05:39:05;;;;;;;;;;;-2.70;99.90;;;;;;4895827;29;19936;-81
2021/01/17 05:41:35;;;;;;;;;;;-2.80;99.90;;;;;;4874490;29;19934;-83
2021/01/17 05:44:03;;;;;;;;;;;-2.90;99.90;;;;;;4868926;29;19938;-81
2021/01/17 05:46:32;;;;;;;;;;;-2.90;99.90;;;;;;4884629;29;19934;-80
2021/01/17 05:49:13;;;;;;;;;;;-3.00;99.90;;;;;;4875069;29;19927;-82
2021/01/17 05:51:40;;;;;;;;;;;-3.00;99.90;;;;;;4877891;29;19924;-82
2021/01/17 05:54:08;;;;;;;;;;;-3.10;99.90;;;;;;4896120;29;19924;-81
2021/01/17 05:56:38;;;;;;;;;;;-3.10;99.90;;;;;;4887266;29;19924;-82
2021/01/17 05:59:06;;;;;;;;;;;-3.00;99.90;;;;;;4888463;29;19930;-81
2021/01/17 06:01:34;;;;;;;;;;;-3.00;99.90;;;;;;4868549;29;19931;-82
2021/01/17 06:04:08;;;;;;;;;;;-2.90;99.90;;;;;;4874240;29;19924;-81
2021/01/17 06:06:38;;;;;;;;;;;-2.80;99.90;;;;;;4877445;29;19935;-81
2021/01/17 06:09:08;;;;;;;;;;;-2.60;99.90;;;;;;4891169;29;19930;-79
2021/01/17 06:11:35;;;;;;;;;;;-2.70;99.90;;;;;;4874250;29;19939;-79
2021/01/17 06:14:03;;;;;;;;;;;-2.60;99.90;;;;;;4899884;29;19927;-80
2021/01/17 06:16:35;;;;;;;;;;;-2.80;99.90;;;;;;4868026;29;19928;-81
2021/01/17 06:19:03;;;;;;;;;;;-2.90;99.90;;;;;;4901510;29;19934;-81
2021/01/17 06:21:31;;;;;;;;;;;-3.10;99.90;;;;;;4893561;29;19924;-80
2021/01/17 06:24:05;;;;;;;;;;;-3.10;99.90;;;;;;4865385;29;19924;-79
2021/01/17 06:26:33;;;;;;;;;;;-3.10;99.90;;;;;;4857188;29;20057;-81
2021/01/17 06:29:00;;;;;;;;;;;-3.10;99.90;;;;;;4896833;29;19939;-82
2021/01/17 06:31:28;;;;;;;;;;;-3.20;99.90;;;;;;4886071;29;20366;-81
2021/01/17 06:34:06;;;;;;;;;;;-3.20;99.90;;;;;;4864779;29;19924;-81
2021/01/17 06:36:37;;;;;;;;;;;-3.00;99.90;;;;;;4880857;29;19934;-81
2021/01/17 06:39:05;;;;;;;;;;;-2.90;99.90;;;;;;4853349;29;19935;-81
2021/01/17 06:41:35;;;;;;;;;;;-3.00;99.90;;;;;;4890507;29;19925;-80
2021/01/17 06:44:07;;;;;;;;;;;-3.10;99.90;;;;;;4868077;29;19923;-80
2021/01/17 06:46:37;;;;;;;;;;;-3.20;99.90;;;;;;4884678;29;19924;-82
2021/01/17 06:49:15;;;;;;;;;;;-3.30;99.90;;;;;;4882392;29;19942;-82
2021/01/17 06:51:46;;;;;;;;;;;-3.20;99.90;;;;;;4872250;29;19924;-81
2021/01/17 06:54:15;;;;;;;;;;;-3.30;99.90;;;;;;4862123;29;19924;-80
2021/01/17 06:56:44;;;;;;;;;;;-3.20;99.90;;;;;;4861535;29;19935;-81
2021/01/17 06:59:11;;;;;;;;;;;-3.10;99.90;;;;;;4894442;29;19923;-82
2021/01/17 07:01:42;;;;;;;;;;;-3.10;99.90;;;;;;4859027;29;19924;-81
2021/01/17 07:04:38;;;;;;;;;;;-3.20;99.90;;;;;;4880604;29;19931;-81
2021/01/17 07:07:23;;;;;;;;;;;-3.30;99.90;;;;;;4876187;29;19924;-81
2021/01/17 07:09:59;;;;;;;;;;;-3.20;99.90;;;;;;4882996;29;19923;-81
2021/01/17 07:12:32;;;;;;;;;;;-3.30;99.90;;;;;;4876048;29;19924;-81
2021/01/17 07:15:03;;;;;;;;;;;-3.30;99.90;;;;;;4880859;29;19908;-81
2021/01/17 07:17:32;;;;;;;;;;;-3.30;99.90;;;;;;4865790;29;19919;-82
2021/01/17 07:20:01;;;;;;;;;;;-3.20;99.90;;;;;;4875241;29;20298;-82
2021/01/17 07:22:38;;;;;;;;;;;-3.30;99.90;;;;;;4862470;29;19930;-79
2021/01/17 07:25:07;;;;;;;;;;;-3.30;99.90;;;;;;4892437;29;19943;-81
2021/01/17 07:28:00;;;;;;;;;;;-3.30;99.90;;;;;;4884480;29;19923;-81
2021/01/17 07:30:33;;;;;;;;;;;-3.20;99.90;;;;;;4859741;29;19924;-81
2021/01/17 07:33:03;;;;;;;;;;;-3.30;99.90;;;;;;4866440;29;19924;-80
2021/01/17 07:35:37;;;;;;;;;;;-3.30;99.90;;;;;;4881075;29;19934;-80
2021/01/17 07:38:10;;;;;;;;;;;-3.20;99.90;;;;;;4865677;29;19923;-81
2021/01/17 07:40:50;;;;;;;;;;;-3.30;99.90;;;;;;4894423;29;19928;-82
2021/01/17 07:43:22;;;;;;;;;;;-3.20;99.90;;;;;;4869844;29;20270;-80
2021/01/17 07:45:50;;;;;;;;;;;-3.10;99.90;;;;;;4879290;29;19924;-80
2021/01/17 07:48:19;;;;;;;;;;;-3.00;99.90;;;;;;4864700;29;19924;-81
2021/01/17 07:50:48;;;;;;;;;;;-3.00;99.90;;;;;;4895827;29;19924;-81
2021/01/17 07:53:23;;;;;;;;;;;-3.00;99.90;;;;;;4865106;29;19924;-80
2021/01/17 07:55:50;;;;;;;;;;;-3.00;99.90;;;;;;4866976;29;20366;-80
2021/01/17 07:58:20;;;;;;;;;;;-2.90;99.90;;;;;;4881425;29;19930;-80
2021/01/17 08:00:47;;;;;;;;;;;-2.70;99.90;;;;;;4881880;29;19932;-80
2021/01/17 08:03:23;;;;;;;;;;;-2.60;99.90;;;;;;4873528;29;19934;-80
2021/01/17 08:05:54;;;;;;;;;;;-2.60;99.90;;;;;;4863676;29;19924;-80
2021/01/17 08:08:46;;;;;;;;;;;-2.60;99.90;;;;;;4860311;29;19935;-80
2021/01/17 08:11:34;;;;;;;;;;;-2.60;99.90;;;;;;4874373;29;19923;-80
2021/01/17 08:14:03;;;;;;;;;;;-2.50;99.90;;;;;;4892916;29;19930;-80
2021/01/17 08:16:33;;;;;;;;;;;-2.40;99.90;;;;;;4866386;29;19950;-82
2021/01/17 08:19:04;;;;;;;;;;;-2.40;99.90;;;;;;4867826;29;19924;-81
2021/01/17 08:21:34;;;;;;;;;;;-2.40;99.90;;;;;;4878632;29;19928;-81
2021/01/17 08:24:19;;;;;;;;;;;-2.30;99.90;;;;;;4867186;29;19939;-82
2021/01/17 08:26:58;;;;;;;;;;;-2.10;99.90;;;;;;4857358;29;19934;-80
2021/01/17 08:29:26;;;;;;;;;;;-2.00;99.90;;;;;;4869334;29;19923;-80
2021/01/17 08:31:53;;;;;;;;;;;-2.00;99.90;;;;;;4848149;29;19938;-80
2021/01/17 08:34:25;;;;;;;;;;;-1.80;99.90;;;;;;4863676;29;19935;-81
2021/01/17 08:36:56;;;;;;;;;;;-1.70;99.90;;;;;;4875340;29;20247;-79
2021/01/17 08:39:43;;;;;;;;;;;-1.60;99.90;;;;;;4851153;29;19931;-79
2021/01/17 08:42:26;;;;;;;;;;;-1.50;99.90;;;;;;4868085;29;19923;-80
2021/01/17 08:44:55;;;;;;;;;;;-1.50;99.90;;;;;;4863050;29;19934;-79
2021/01/17 08:47:22;;;;;;;;;;;-1.40;99.90;;;;;;4858543;29;20079;-80
2021/01/17 08:49:55;;;;;;;;;;;-1.40;99.90;;;;;;4861254;29;20280;-79
2021/01/17 08:52:24;;;;;;;;;;;-1.20;99.90;;;;;;4856920;29;20255;-81
2021/01/17 08:54:52;;;;;;;;;;;-1.10;99.90;;;;;;4858628;29;19931;-80
2021/01/17 08:57:38;;;;;;;;;;;-1.00;99.90;;;;;;4862934;29;20186;-80
2021/01/17 09:00:08;;;;;;;;;;;-0.90;99.90;;;;;;4879299;29;19924;-82
2021/01/17 09:02:35;;;;;;;;;;;-0.90;99.90;;;;;;4872093;29;19930;-81
2021/01/17 09:05:03;;;;;;;;;;;-1.00;99.90;;;;;;4882256;29;19951;-82
2021/01/17 09:07:41;;;;;;;;;;;-1.10;99.90;;;;;;4852018;29;19931;-80
2021/01/17 09:10:09;;;;;;;;;;;-1.10;99.90;;;;;;4862004;29;19924;-82
2021/01/17 09:12:36;;;;;;;;;;;-0.90;99.90;;;;;;4866214;29;19923;-82
2021/01/17 09:15:15;;;;;;;;;;;-0.80;99.90;;;;;;4862109;29;19924;-81
2021/01/17 09:17:43;;;;;;;;;;;-0.70;99.90;;;;;;4877975;29;19924;-81
2021/01/17 09:20:14;;;;;;;;;;;-0.60;99.90;;;;;;4845007;29;19935;-81
2021/01/17 09:22:45;;;;;;;;;;;-0.50;99.90;;;;;;4869005;29;19924;-81
2021/01/17 09:25:21;;;;;;;;;;;-0.50;99.90;;;;;;4871515;29;19947;-81
2021/01/17 09:27:51;;;;;;;;;;;-0.40;99.90;;;;;;4868203;29;19924;-80
2021/01/17 09:30:22;;;;;;;;;;;-0.30;99.90;;;;;;4840374;29;19939;-80
2021/01/17 09:32:51;;;;;;;;;;;-0.20;99.90;;;;;;4863380;29;19935;-82
2021/01/17 09:35:21;;;;;;;;;;;-0.10;99.90;;;;;;4864388;29;19935;-80
2021/01/17 09:37:56;;;;;;;;;;;-0.20;99.90;;;;;;4869680;29;19924;-80
2021/01/17 09:40:25;;;;;;;;;;;-0.30;99.90;;;;;;4868793;29;19939;-82
2021/01/17 09:42:55;;;;;;;;;;;-0.50;99.90;;;;;;4852495;29;19924;-80
2021/01/17 09:45:22;;;;;;;;;;;-0.60;99.90;;;;;;4837168;29;19924;-81
2021/01/17 09:47:49;;;;;;;;;;;-0.70;99.90;;;;;;4833871;29;19947;-81
2021/01/17 09:50:22;;;;;;;;;;;-0.70;99.90;;;;;;4877813;29;19925;-81
2021/01/17 09:52:53;;;;;;;;;;;-0.80;99.90;;;;;;4842480;29;20277;-80
2021/01/17 09:55:21;;;;;;;;;;;-0.70;99.90;;;;;;4863003;29;19924;-81
2021/01/17 09:57:51;;;;;;;;;;;-0.70;99.90;;;;;;4845463;29;19943;-81
2021/01/17 10:00:27;;;;;;;;;;;-0.60;99.90;;;;;;4853319;29;19925;-81
2021/01/17 10:02:57;;;;;;;;;;;-0.50;99.90;;;;;;4858470;29;19935;-80
2021/01/17 10:05:27;;;;;;;;;;;-0.40;99.90;;;;;;4856103;29;19943;-81
2021/01/17 10:08:02;;;;;;;;;;;-0.40;99.90;;;;;;4861167;29;19935;-81
2021/01/17 10:10:29;;;;;;;;;;;-0.20;99.90;;;;;;4854448;29;19924;-80
2021/01/17 10:12:56;;;;;;;;;;;-0.10;99.90;;;;;;4834611;29;19950;-81
2021/01/17 10:15:26;;;;;;;;;;;-0.20;99.90;;;;;;4850104;29;19928;-82
2021/01/17 10:17:53;;;;;;;;;;;-0.30;99.90;;;;;;4837777;29;19923;-82
2021/01/17 10:20:23;;;;;;;;;;;-0.30;99.90;;;;;;4879538;29;19928;-83
2021/01/17 10:22:57;;;;;;;;;;;-0.30;99.90;;;;;;4864132;29;19935;-82
2021/01/17 10:25:25;;;;;;;;;;;-0.20;99.90;;;;;;4884628;29;19928;-86
2021/01/17 10:27:58;;;;;;;;;;;-0.10;99.90;;;;;;4894704;29;19924;-84
2021/01/17 10:30:32;;;;;;;;;;;-0.10;99.90;;;;;;4871643;29;19924;-85
2021/01/17 10:33:02;;;;;;;;;;;-0.20;99.90;;;;;;4886219;29;19928;-85
2021/01/17 10:35:30;;;;;;;;;;;-0.20;99.90;;;;;;4872083;29;19928;-82
2021/01/17 10:38:03;;;;;;;;;;;-0.10;99.90;;;;;;4869224;29;19924;-83
2021/01/17 10:40:31;;;;;;;;;;;-0.10;99.90;;;;;;4894679;29;19924;-83
2021/01/17 10:43:06;;;;;;;;;;;-0.10;99.90;;;;;;4894967;29;19950;-83
2021/01/17 10:45:33;;;;;;;;;;;0.00;99.90;;;;;;4886866;29;19924;-83
2021/01/17 10:48:07;;;;;;;;;;;0.00;99.90;;;;;;4881619;29;20278;-84
2021/01/17 10:50:42;;;;;;;;;;;0.00;99.90;;;;;;4865733;29;19935;-82
2021/01/17 10:53:15;;;;;;;;;;;0.00;99.90;;;;;;4876607;29;19935;-82
2021/01/17 10:55:45;;;;;;;;;;;0.10;99.90;;;;;;4865252;29;19924;-85
2021/01/17 10:58:13;;;;;;;;;;;0.20;99.90;;;;;;4860902;29;20270;-83
2021/01/17 11:00:49;;;;;;;;;;;0.30;99.90;;;;;;4871305;29;19911;-83
2021/01/17 11:03:29;;;;;;;;;;;0.40;99.90;;;;;;4869762;29;19924;-83
2021/01/17 11:06:03;;;;;;;;;;;0.40;99.90;;;;;;4869878;29;19908;-83
2021/01/17 11:08:32;;;;;;;;;;;0.40;99.90;;;;;;4879706;29;19924;-84
2021/01/17 11:11:00;;;;;;;;;;;0.40;99.90;;;;;;4867623;29;19942;-83
2021/01/17 11:13:27;;;;;;;;;;;0.40;99.90;;;;;;4890466;29;19923;-84
2021/01/17 11:15:55;;;;;;;;;;;0.30;99.90;;;;;;4867831;29;19924;-82
2021/01/17 11:18:26;;;;;;;;;;;0.30;99.90;;;;;;4870976;29;19931;-81
2021/01/17 11:20:56;;;;;;;;;;;0.30;99.90;;;;;;4897610;29;19924;-82
2021/01/17 11:23:24;;;;;;;;;;;0.40;99.90;;;;;;4879740;29;19923;-81
2021/01/17 11:25:59;;;;;;;;;;;0.50;99.90;;;;;;4885293;29;19930;-83
2021/01/17 11:28:28;;;;;;;;;;;0.50;99.90;;;;;;4892029;29;19930;-81
2021/01/17 11:30:59;;;;;;;;;;;0.60;99.90;;;;;;4878366;29;19938;-83
2021/01/17 11:33:28;;;;;;;;;;;0.70;99.90;;;;;;4860470;29;19908;-82
2021/01/17 11:35:59;;;;;;;;;;;0.80;99.90;;;;;;4885523;29;19924;-82
2021/01/17 11:38:43;;;;;;;;;;;0.80;99.90;;;;;;4866725;29;19924;-82
2021/01/17 11:41:12;;;;;;;;;;;0.60;99.90;;;;;;4872105;29;19924;-83
2021/01/17 11:43:43;;;;;;;;;;;0.50;99.90;;;;;;4885553;29;19924;-82
2021/01/17 11:46:13;;;;;;;;;;;0.50;99.90;;;;;;4877133;29;19934;-84
2021/01/17 11:48:43;;;;;;;;;;;0.40;99.90;;;;;;4887873;29;19907;-83
2021/01/17 11:51:24;;;;;;;;;;;0.30;99.90;;;;;;4870642;29;19908;-83
2021/01/17 11:53:51;;;;;;;;;;;0.40;99.90;;;;;;4868343;29;19924;-84
2021/01/17 11:56:23;;;;;;;;;;;0.50;99.90;;;;;;4866057;29;19934;-83
2021/01/17 11:58:52;;;;;;;;;;;0.60;99.90;;;;;;4852548;29;19912;-82
2021/01/17 12:01:25;;;;;;;;;;;0.70;99.90;;;;;;4886978;29;19934;-84
2021/01/17 12:07:22;;;;;;;;;;;0.80;99.90;;;;;;4888592;29;19900;-83
2021/01/17 12:10:02;;;;;;;;;;;0.80;99.90;;;;;;4882427;29;19909;-84
2021/01/17 12:12:35;;;;;;;;;;;0.80;99.90;;;;;;4882291;29;19919;-84
2021/01/17 12:15:07;;;;;;;;;;;0.70;99.90;;;;;;4869002;29;19908;-84
2021/01/17 12:17:40;;;;;;;;;;;0.70;99.90;;;;;;5399691;23;19930;-84
2021/01/17 12:20:09;;;;;;;;;;;0.70;99.90;;;;;;4910857;29;19913;-85
2021/01/17 12:22:40;;;;;;;;;;;0.70;99.90;;;;;;4941652;29;19914;-83
2021/01/17 12:25:09;;;;;;;;;;;0.80;99.90;;;;;;4925524;29;19923;-85
2021/01/17 12:27:37;;;;;;;;;;;0.80;99.90;;;;;;4910970;29;19913;-84
2021/01/17 12:30:07;;;;;;;;;;;0.70;99.90;;;;;;4926354;29;19911;-83
2021/01/17 12:32:36;;;;;;;;;;;0.90;99.90;;;;;;4926286;29;19933;-83
2021/01/17 12:35:04;;;;;;;;;;;1.00;99.90;;;;;;4914592;29;19927;-83
2021/01/17 12:37:32;;;;;;;;;;;1.00;99.30;;;;;;5323726;23;19977;-83
2021/01/17 12:40:19;;;;;;;;;;;1.10;98.50;;;;;;5841565;23;19929;-82
2021/01/17 12:42:47;;;;;;;;;;;1.10;98.30;;;;;;4908692;29;20280;-82
2021/01/17 12:45:27;;;;;;;;;;;1.10;98.20;;;;;;4923660;29;19935;-84
2021/01/17 12:47:57;;;;;;;;;;;1.20;97.60;;;;;;4905242;29;19923;-83
2021/01/17 12:50:27;;;;;;;;;;;1.20;96.60;;;;;;5052579;23;19927;-82
2021/01/17 12:52:54;;;;;;;;;;;1.80;94.70;;;;;;4925477;29;19909;-85
2021/01/17 12:55:22;;;;;;;;;;;3.40;83.60;;;;;;4964250;23;19932;-88
2021/01/17 12:57:49;;;;;;;;;;;5.40;66.80;;;;;;4922827;29;20330;-92
2021/01/17 13:00:17;;;;;;;;;;;6.90;55.90;;;;;;4879760;29;19923;-93
2021/01/17 13:02:49;;;;;;;;;;;8.40;51.50;;;;;;4905694;29;19950;-90
2021/01/17 13:05:16;;;;;;;;;;;9.60;47.00;;;;;;4919478;29;19923;-90
2021/01/17 13:07:43;;;;;;;;;;;10.40;43.90;;;;;;4903847;29;19934;-92
2021/01/17 13:10:11;;;;;;;;;;;10.60;43.60;;;;;;4907533;29;19923;-88
2021/01/17 13:12:39;;;;;;;;;;;11.00;43.80;;;;;;4874652;29;19923;-87
2021/01/17 13:15:09;;;;;;;;;;;11.60;41.40;;;;;;4869417;29;19924;-90
2021/01/17 13:17:37;;;;;;;;;;;11.90;40.70;;;;;;4901778;29;20358;-88
2021/01/17 13:20:06;;;;;;;;;;;12.20;41.10;;;;;;4871836;29;19923;-86
2021/01/17 13:22:33;;;;;;;;;;;12.60;39.80;;;;;;4902725;29;20370;-88
2021/01/17 13:25:05;;;;;;;;;;;12.50;38.80;;;;;;4885541;29;19930;-88
2021/01/17 13:27:36;;;;;;;;;;;12.40;39.60;;;;;;4886632;29;19942;-87
2021/01/17 13:30:08;;;;;;;;;;;12.70;39.60;;;;;;4874940;29;19923;-85
2021/01/17 13:32:38;;;;;;;;;;;12.70;38.60;;;;;;4893760;29;19923;-86
2021/01/17 13:35:07;;;;;;;;;;;12.70;39.20;;;;;;4917794;29;19911;-86
2021/01/17 13:37:35;;;;;;;;;;;13.10;37.80;;;;;;4903185;29;19923;-87
2021/01/17 13:40:06;;;;;;;;;;;13.00;38.00;;;;;;4904073;29;19927;-81
2021/01/17 13:42:33;;;;;;;;;;;13.10;38.20;;;;;;4918479;29;20269;-83
2021/01/17 13:45:04;;;;;;;;;;;13.30;37.90;;;;;;4896702;29;19930;-85
2021/01/17 13:47:36;;;;;;;;;;;13.50;37.20;;;;;;4905246;29;19927;-84
2021/01/17 13:50:04;;;;;;;;;;;13.60;36.10;;;;;;4901601;29;19931;-86
2021/01/17 13:52:50;;;;;;;;;;;13.10;36.30;;;;;;4872005;29;19943;-91
2021/01/17 13:55:23;;;;;;;;;;;11.70;38.20;;;;;;4886547;29;19924;-91
2021/01/17 13:57:53;;;;;;;;;;;10.80;39.70;;;;;;4902758;29;19924;-91
2021/01/17 14:00:21;;;;;;;;;;;9.80;41.80;;;;;;4888519;29;19923;-90
2021/01/17 14:02:49;;;;;;;;;;;8.80;43.30;;;;;;4906736;29;19922;-91
2021/01/17 14:05:17;;;;;;;;;;;7.90;45.60;;;;;;4904544;29;19924;-92
2021/01/17 14:07:48;;;;;;;;;;;7.20;47.00;;;;;;4891518;29;19931;-91
2021/01/17 14:10:18;;;;;;;;;;;6.80;48.20;;;;;;4900207;29;19934;-91
2021/01/17 14:12:45;;;;;;;;;;;6.30;49.20;;;;;;4905308;29;19934;-92
2021/01/17 14:15:13;;;;;;;;;;;5.70;50.50;;;;;;4918124;29;20309;-93
2021/01/17 14:17:42;;;;;;;;;;;5.50;51.70;;;;;;4909769;29;19930;-91
2021/01/17 14:20:10;;;;;;;;;;;5.50;52.80;;;;;;4898616;29;19923;-92
2021/01/17 14:22:38;;;;;;;;;;;5.60;52.60;;;;;;4897180;29;19935;-91
2021/01/17 14:25:05;;;;;;;;;;;6.00;51.90;;;;;;4918900;29;19922;-89
2021/01/17 14:27:35;;;;;;;;;;;6.10;51.60;;;;;;4902820;29;19945;-89
2021/01/17 14:30:08;;;;;;;;;;;5.80;51.60;;;;;;4903665;29;19978;-91
2021/01/17 14:32:36;;;;;;;;;;;5.10;53.40;;;;;;4889732;29;19943;-88
2021/01/17 14:35:04;;;;;;;;;;;4.50;55.50;;;;;;4895307;29;19922;-89
2021/01/17 14:37:31;;;;;;;;;;;3.90;57.70;;;;;;4887025;29;19934;-84
2021/01/17 14:40:00;;;;;;;;;;;3.30;61.60;;;;;;4899751;29;19934;-82
2021/01/17 14:42:29;;;;;;;;;;;2.90;66.40;;;;;;4906253;29;19922;-81